Spokane, WA (99218)

4:15 AM PDT on September 22, 2014 (GMT -0700)
Kensington | Change Station
CLOSE
Current Station
Personal Weather Station
Location: Spokane, WA
Elevation: 2021 ft
Nearby Weather Stations

Elev 2021 ft 47.75 °N, 117.43 °W | Updated 2 seconds ago

Clear
Clear
54.3 °F
Feels Like 54.3 °F
N
0.0
Wind Variable Wind from SSE
Gusts 0.0 mph

Today
High -- | Low -- °F
--% Chance of Precip.
Yesterday
High -- | Low -- °F
Precip. -- in
6:36 AM 6:47 PM
Waning Crescent, 3% visible
Pressure 29.86 in
Visibility 10.0 miles
Clouds Clear
Dew Point 28 °F
Humidity 36%
Rainfall 0.00 in
Snow Depth 0 in
UV 0 out of 12
Pollen 7.90 out of 12
PM2.5 Moderate
Flu Activity Not available.
METAR KSFF 221053Z AUTO 05003KT 10SM CLR 15/08 A2991 RMK AO2 SLP112 T01500083

More Conditions Fewer Conditions

Pressure 29.86 in
Visibility 10.0 miles
Clouds Clear
Dew Point 28 °F
Humidity 36%
Rainfall 0.00 in
Snow Depth 0 in
UV 0 out of 12
Pollen 7.90 out of 12
PM2.5 Moderate
Flu Activity Not available.
METAR KSFF 221053Z AUTO 05003KT 10SM CLR 15/08 A2991 RMK AO2 SLP112 T01500083

More Conditions Fewer Conditions

10-Day Weather Forecast

Almanac

Astronomy

Sep. 22, 2014 Rise Set
Actual Time 6:36 AM PDT 6:47 PM PDT
Civil Twilight 6:05 AM PDT 7:17 PM PDT
Nautical Twilight 5:29 AM PDT 7:54 PM PDT
Astronomical Twilight 4:51 AM PDT 8:31 PM PDT
Moon 5:05 AM PDT 5:59 PM PDT
Length of Visible Light 13h 12m
Length of Day
12h 10m
Tomorrow will be 3m 26s shorter.
Waning Crescent, 3% of the Moon is Illuminated
Today
Waning Crescent
Sep 24
New
Oct 1
First Quarter
Oct 8
Full
Oct 15
Last Quarter

Today's Extremes

State Highs State Lows

Community

WunderPhotos

Upload Photos

1,755,409 photos uploaded!

Nearby

Air Quality

  Air Quality AQ Index Pollutant
Yesterday Good
PM10
Yesterday Good
OZONE
Current Moderate
PM2.5
Monday Good
PM10
Monday Good
OZONE

Snow Depth

Station Depth Elevation
Trough 0 in 5300 ft
Stevens Pass 0 in 4070 ft
Fish Lake 0 in 3371 ft
Alpine Meadows 0 in 3500 ft
June Lake 0 in 3340 ft

Earthquake Activity

City Distance Mag. Time & Date
No recent earthquake activity has been reported nearby.
Minimum magnitude displayed is 2.5.

Coastal Water Temperatures

Place Temperature
No Stations Reporting

Nearby Weather Stations